Terminal Aerodrome Forecast
Issued by NWS

Home | Current Version | Previous Version | Text Only | Print | Product List | Glossary On
Versions: 1 2 3 4 5 6 7 8 9 10 11 12 13 14 15 16 17 18
000
FTUS42 KMLB 181302 AAA
TAFFPR
TAF AMD
KFPR 181302Z 1813/1912 00000KT 1/4SM FG VV003
     FM181400 13005KT P6SM SCT010 SCT025 SCT250
     FM181800 09009KT P6SM SCT025 SCT040 SCT250
     FM190000 13004KT P6SM FEW045 SCT250=

USA.gov is the U.S. government's official web portal to all federal, state and local government web resources and services.